sensor_id;sensor_type;location;lat;lon;timestamp;pressure;altitude;pressure_sealevel;temperature;humidity
50434;BME280;36361;38.954;-9.002;2023-09-30T00:00:50;101026.22;;;26.89;62.95
50434;BME280;36361;38.954;-9.002;2023-09-30T00:01:50;101016.94;;;26.80;61.53
50434;BME280;36361;38.954;-9.002;2023-09-30T00:02:52;101009.81;;;26.74;64.29
50434;BME280;36361;38.954;-9.002;2023-09-30T00:03:53;101012.72;;;26.69;65.91
50434;BME280;36361;38.954;-9.002;2023-09-30T00:04:54;101004.47;;;26.64;64.64
50434;BME280;36361;38.954;-9.002;2023-09-30T00:05:54;101012.22;;;26.67;64.01
50434;BME280;36361;38.954;-9.002;2023-09-30T00:06:55;101011.81;;;26.60;64.88
50434;BME280;36361;38.954;-9.002;2023-09-30T00:07:56;101014.06;;;26.72;65.02
50434;BME280;36361;38.954;-9.002;2023-09-30T00:08:56;101007.44;;;26.68;64.10
50434;BME280;36361;38.954;-9.002;2023-09-30T00:09:57;101017.78;;;26.67;62.80
50434;BME280;36361;38.954;-9.002;2023-09-30T00:10:58;101012.63;;;26.60;63.66
50434;BME280;36361;38.954;-9.002;2023-09-30T00:12:00;101011.63;;;26.56;65.97
50434;BME280;36361;38.954;-9.002;2023-09-30T00:13:00;101005.53;;;26.54;66.44
50434;BME280;36361;38.954;-9.002;2023-09-30T00:14:01;101007.91;;;26.61;60.18
50434;BME280;36361;38.954;-9.002;2023-09-30T00:15:02;101007.38;;;26.59;62.45
50434;BME280;36361;38.954;-9.002;2023-09-30T00:16:04;101006.22;;;26.60;59.93
50434;BME280;36361;38.954;-9.002;2023-09-30T00:17:06;101001.19;;;26.62;63.83
50434;BME280;36361;38.954;-9.002;2023-09-30T00:18:06;101010.28;;;26.54;64.51
50434;BME280;36361;38.954;-9.002;2023-09-30T00:19:07;101022.97;;;26.60;59.44
50434;BME280;36361;38.954;-9.002;2023-09-30T00:20:09;101010.31;;;26.76;58.73
50434;BME280;36361;38.954;-9.002;2023-09-30T00:21:10;101016.78;;;26.85;60.50
50434;BME280;36361;38.954;-9.002;2023-09-30T00:22:13;101006.00;;;26.70;64.40
50434;BME280;36361;38.954;-9.002;2023-09-30T00:23:14;101009.75;;;26.65;63.08
50434;BME280;36361;38.954;-9.002;2023-09-30T00:24:25;101011.31;;;26.58;65.75
50434;BME280;36361;38.954;-9.002;2023-09-30T00:25:25;101010.28;;;26.54;65.00
50434;BME280;36361;38.954;-9.002;2023-09-30T00:26:28;101013.69;;;26.51;65.96
50434;BME280;36361;38.954;-9.002;2023-09-30T00:27:52;101016.00;;;26.49;64.94
50434;BME280;36361;38.954;-9.002;2023-09-30T00:28:53;101009.91;;;26.47;62.22
50434;BME280;36361;38.954;-9.002;2023-09-30T00:29:54;101007.28;;;26.50;65.71
50434;BME280;36361;38.954;-9.002;2023-09-30T00:30:54;101004.50;;;26.50;65.95
50434;BME280;36361;38.954;-9.002;2023-09-30T00:31:55;101005.84;;;26.53;66.00
50434;BME280;36361;38.954;-9.002;2023-09-30T00:32:56;101008.13;;;26.51;65.45
50434;BME280;36361;38.954;-9.002;2023-09-30T00:33:57;101007.00;;;26.52;60.52
50434;BME280;36361;38.954;-9.002;2023-09-30T00:35:01;101003.50;;;26.46;64.60
50434;BME280;36361;38.954;-9.002;2023-09-30T00:36:09;101002.66;;;26.46;66.79
50434;BME280;36361;38.954;-9.002;2023-09-30T00:37:10;100999.38;;;26.44;65.75
50434;BME280;36361;38.954;-9.002;2023-09-30T00:38:13;101007.19;;;26.55;63.52
50434;BME280;36361;38.954;-9.002;2023-09-30T00:39:15;101003.56;;;26.55;64.52
50434;BME280;36361;38.954;-9.002;2023-09-30T00:40:17;100998.63;;;26.52;65.98
50434;BME280;36361;38.954;-9.002;2023-09-30T00:41:18;100999.75;;;26.51;66.19
50434;BME280;36361;38.954;-9.002;2023-09-30T00:42:19;101004.81;;;26.49;65.61
50434;BME280;36361;38.954;-9.002;2023-09-30T00:43:21;101006.47;;;26.50;59.86
50434;BME280;36361;38.954;-9.002;2023-09-30T00:44:21;101002.53;;;26.51;60.75
50434;BME280;36361;38.954;-9.002;2023-09-30T00:45:22;101001.53;;;26.47;58.71
50434;BME280;36361;38.954;-9.002;2023-09-30T00:47:24;100998.66;;;26.38;58.63
50434;BME280;36361;38.954;-9.002;2023-09-30T00:48:27;101002.16;;;26.44;58.96
50434;BME280;36361;38.954;-9.002;2023-09-30T00:49:29;101001.03;;;26.45;63.39
50434;BME280;36361;38.954;-9.002;2023-09-30T00:50:30;101002.34;;;26.47;62.47
50434;BME280;36361;38.954;-9.002;2023-09-30T00:51:31;101007.09;;;26.47;58.76
50434;BME280;36361;38.954;-9.002;2023-09-30T00:52:35;101006.09;;;26.43;58.92
50434;BME280;36361;38.954;-9.002;2023-09-30T00:53:36;101001.72;;;26.36;59.00
50434;BME280;36361;38.954;-9.002;2023-09-30T00:54:37;101006.88;;;26.57;57.72
50434;BME280;36361;38.954;-9.002;2023-09-30T00:55:39;100995.94;;;26.33;60.03
50434;BME280;36361;38.954;-9.002;2023-09-30T00:56:45;100994.91;;;26.29;58.47
50434;BME280;36361;38.954;-9.002;2023-09-30T00:57:46;101004.00;;;26.34;60.78
50434;BME280;36361;38.954;-9.002;2023-09-30T00:58:47;101006.09;;;26.43;62.23
50434;BME280;36361;38.954;-9.002;2023-09-30T00:59:50;101009.41;;;26.45;59.98
50434;BME280;36361;38.954;-9.002;2023-09-30T01:00:52;101008.34;;;26.41;59.56
50434;BME280;36361;38.954;-9.002;2023-09-30T01:01:54;101010.09;;;26.36;59.53
50434;BME280;36361;38.954;-9.002;2023-09-30T01:02:55;101002.56;;;26.23;61.02
50434;BME280;36361;38.954;-9.002;2023-09-30T01:03:57;101009.19;;;26.27;58.64
50434;BME280;36361;38.954;-9.002;2023-09-30T01:04:59;101005.75;;;26.30;64.71
50434;BME280;36361;38.954;-9.002;2023-09-30T01:06:00;100996.25;;;26.31;61.55
50434;BME280;36361;38.954;-9.002;2023-09-30T01:07:01;101009.00;;;26.38;58.10
50434;BME280;36361;38.954;-9.002;2023-09-30T01:08:02;101001.53;;;26.47;57.01
50434;BME280;36361;38.954;-9.002;2023-09-30T01:09:03;100999.88;;;26.46;62.20
50434;BME280;36361;38.954;-9.002;2023-09-30T01:10:04;100999.66;;;26.42;62.49
50434;BME280;36361;38.954;-9.002;2023-09-30T01:11:12;101003.91;;;26.40;63.77
50434;BME280;36361;38.954;-9.002;2023-09-30T01:12:13;101001.72;;;26.36;63.87
50434;BME280;36361;38.954;-9.002;2023-09-30T01:13:14;101009.00;;;26.38;59.91
50434;BME280;36361;38.954;-9.002;2023-09-30T01:14:30;101005.06;;;26.39;63.75
50434;BME280;36361;38.954;-9.002;2023-09-30T01:15:31;101006.72;;;26.40;64.25
50434;BME280;36361;38.954;-9.002;2023-09-30T01:16:32;101007.75;;;26.44;63.40
50434;BME280;36361;38.954;-9.002;2023-09-30T01:17:35;101007.22;;;26.42;57.69
50434;BME280;36361;38.954;-9.002;2023-09-30T01:18:38;101009.00;;;26.38;57.75
50434;BME280;36361;38.954;-9.002;2023-09-30T01:19:40;101008.13;;;26.37;58.85
50434;BME280;36361;38.954;-9.002;2023-09-30T01:20:43;101009.38;;;26.31;57.90
50434;BME280;36361;38.954;-9.002;2023-09-30T01:21:43;101004.75;;;26.26;59.47
50434;BME280;36361;38.954;-9.002;2023-09-30T01:22:48;101005.56;;;26.27;58.60
50434;BME280;36361;38.954;-9.002;2023-09-30T01:23:52;101016.22;;;26.11;58.74
50434;BME280;36361;38.954;-9.002;2023-09-30T01:24:53;101006.31;;;26.05;59.09
50434;BME280;36361;38.954;-9.002;2023-09-30T01:25:54;101009.91;;;26.05;59.30
50434;BME280;36361;38.954;-9.002;2023-09-30T01:26:55;101002.56;;;26.23;58.31
50434;BME280;36361;38.954;-9.002;2023-09-30T01:27:56;101014.13;;;26.30;58.47
50434;BME280;36361;38.954;-9.002;2023-09-30T01:29:00;101004.13;;;26.29;58.31
50434;BME280;36361;38.954;-9.002;2023-09-30T01:30:01;101011.69;;;26.15;59.90
50434;BME280;36361;38.954;-9.002;2023-09-30T01:31:01;101011.06;;;26.04;58.91
50434;BME280;36361;38.954;-9.002;2023-09-30T01:32:02;101001.75;;;26.23;58.52
50434;BME280;36361;38.954;-9.002;2023-09-30T01:33:07;101011.06;;;26.04;58.73
50434;BME280;36361;38.954;-9.002;2023-09-30T01:34:08;101007.53;;;26.13;58.75
50434;BME280;36361;38.954;-9.002;2023-09-30T01:35:11;101006.13;;;26.15;58.57
50434;BME280;36361;38.954;-9.002;2023-09-30T01:36:13;101007.75;;;26.16;58.27
50434;BME280;36361;38.954;-9.002;2023-09-30T01:37:13;101009.72;;;26.16;58.59
50434;BME280;36361;38.954;-9.002;2023-09-30T01:38:14;101014.16;;;26.17;58.75
50434;BME280;36361;38.954;-9.002;2023-09-30T01:39:15;101006.22;;;26.10;59.13
50434;BME280;36361;38.954;-9.002;2023-09-30T01:40:16;101011.50;;;25.98;60.61
50434;BME280;36361;38.954;-9.002;2023-09-30T01:41:18;101013.56;;;26.06;58.93
50434;BME280;36361;38.954;-9.002;2023-09-30T01:42:19;101011.28;;;26.08;59.46
50434;BME280;36361;38.954;-9.002;2023-09-30T01:43:20;101005.06;;;26.11;58.31
50434;BME280;36361;38.954;-9.002;2023-09-30T01:44:20;101007.97;;;26.20;58.68
50434;BME280;36361;38.954;-9.002;2023-09-30T01:45:21;101013.34;;;26.16;62.48
50434;BME280;36361;38.954;-9.002;2023-09-30T01:46:22;101004.25;;;26.24;58.25
50434;BME280;36361;38.954;-9.002;2023-09-30T01:47:23;100999.91;;;26.18;58.00
50434;BME280;36361;38.954;-9.002;2023-09-30T01:48:24;101002.56;;;26.23;57.59
50434;BME280;36361;38.954;-9.002;2023-09-30T01:49:24;101003.84;;;26.17;57.30
50434;BME280;36361;38.954;-9.002;2023-09-30T01:50:26;101004.56;;;26.09;58.17
50434;BME280;36361;38.954;-9.002;2023-09-30T01:51:28;101006.22;;;26.10;57.23
50434;BME280;36361;38.954;-9.002;2023-09-30T01:52:32;100998.47;;;26.07;57.45
50434;BME280;36361;38.954;-9.002;2023-09-30T01:53:33;101003.44;;;26.10;57.61
50434;BME280;36361;38.954;-9.002;2023-09-30T01:54:34;101000.13;;;26.08;57.37
50434;BME280;36361;38.954;-9.002;2023-09-30T01:55:36;101003.22;;;26.06;57.16
50434;BME280;36361;38.954;-9.002;2023-09-30T01:56:38;101000.91;;;26.22;56.61
50434;BME280;36361;38.954;-9.002;2023-09-30T01:57:39;101000.72;;;26.19;56.75
50434;BME280;36361;38.954;-9.002;2023-09-30T01:58:40;100992.53;;;26.22;56.29
50434;BME280;36361;38.954;-9.002;2023-09-30T01:59:41;100997.31;;;26.22;56.37
50434;BME280;36361;38.954;-9.002;2023-09-30T02:00:41;101002.56;;;26.23;56.64
50434;BME280;36361;38.954;-9.002;2023-09-30T02:01:42;100997.53;;;26.12;57.89
50434;BME280;36361;38.954;-9.002;2023-09-30T02:02:43;101000.31;;;26.12;57.88
50434;BME280;36361;38.954;-9.002;2023-09-30T02:03:44;101003.44;;;26.10;59.05
50434;BME280;36361;38.954;-9.002;2023-09-30T02:04:45;100997.13;;;26.18;61.38
50434;BME280;36361;38.954;-9.002;2023-09-30T02:05:46;100995.69;;;26.07;57.35
50434;BME280;36361;38.954;-9.002;2023-09-30T02:06:46;100986.28;;;26.17;56.94
50434;BME280;36361;38.954;-9.002;2023-09-30T02:07:47;100989.78;;;26.08;56.78
50434;BME280;36361;38.954;-9.002;2023-09-30T02:08:48;100993.91;;;26.25;60.86
50434;BME280;36361;38.954;-9.002;2023-09-30T02:09:49;100988.44;;;26.20;62.90
50434;BME280;36361;38.954;-9.002;2023-09-30T02:10:50;100992.78;;;26.26;57.23
50434;BME280;36361;38.954;-9.002;2023-09-30T02:11:54;100987.09;;;26.17;57.41
50434;BME280;36361;38.954;-9.002;2023-09-30T02:12:55;100989.88;;;26.17;59.48
50434;BME280;36361;38.954;-9.002;2023-09-30T02:13:56;100986.59;;;26.15;57.23
50434;BME280;36361;38.954;-9.002;2023-09-30T02:14:58;100990.81;;;26.13;56.91
50434;BME280;36361;38.954;-9.002;2023-09-30T02:15:59;100983.25;;;26.13;56.76
50434;BME280;36361;38.954;-9.002;2023-09-30T02:17:06;100993.28;;;26.14;59.37
50434;BME280;36361;38.954;-9.002;2023-09-30T02:18:07;100988.47;;;26.06;56.18
50434;BME280;36361;38.954;-9.002;2023-09-30T02:19:07;100984.00;;;26.19;55.66
50434;BME280;36361;38.954;-9.002;2023-09-30T02:20:12;100988.50;;;26.28;55.07
50434;BME280;36361;38.954;-9.002;2023-09-30T02:21:19;100989.25;;;26.34;56.11
50434;BME280;36361;38.954;-9.002;2023-09-30T02:22:22;100986.75;;;26.32;55.84
50434;BME280;36361;38.954;-9.002;2023-09-30T02:23:28;100980.22;;;26.37;58.31
50434;BME280;36361;38.954;-9.002;2023-09-30T02:24:29;100979.44;;;26.23;56.00
50434;BME280;36361;38.954;-9.002;2023-09-30T02:25:29;100980.47;;;26.13;55.77
50434;BME280;36361;38.954;-9.002;2023-09-30T02:26:31;100970.97;;;26.14;55.83
50434;BME280;36361;38.954;-9.002;2023-09-30T02:27:31;100976.44;;;26.19;55.94
50434;BME280;36361;38.954;-9.002;2023-09-30T02:28:35;100979.19;;;26.33;54.59
50434;BME280;36361;38.954;-9.002;2023-09-30T02:29:36;100983.94;;;26.32;60.27
50434;BME280;36361;38.954;-9.002;2023-09-30T02:30:36;100977.34;;;26.28;56.10
50434;BME280;36361;38.954;-9.002;2023-09-30T02:31:37;100982.94;;;26.28;55.00
50434;BME280;36361;38.954;-9.002;2023-09-30T02:32:40;100985.63;;;26.33;56.39
50434;BME280;36361;38.954;-9.002;2023-09-30T02:33:41;100983.56;;;26.25;55.65
50434;BME280;36361;38.954;-9.002;2023-09-30T02:34:41;100974.97;;;26.35;57.22
50434;BME280;36361;38.954;-9.002;2023-09-30T02:35:46;100974.88;;;26.27;55.03
50434;BME280;36361;38.954;-9.002;2023-09-30T02:36:47;100978.19;;;26.29;54.79
50434;BME280;36361;38.954;-9.002;2023-09-30T02:37:48;100972.28;;;26.30;54.42
50434;BME280;36361;38.954;-9.002;2023-09-30T02:38:49;100974.88;;;26.27;56.40
50434;BME280;36361;38.954;-9.002;2023-09-30T02:39:50;100975.06;;;26.30;55.07
50434;BME280;36361;38.954;-9.002;2023-09-30T02:40:51;100973.25;;;26.26;54.72
50434;BME280;36361;38.954;-9.002;2023-09-30T02:41:52;100973.63;;;26.33;59.69
50434;BME280;36361;38.954;-9.002;2023-09-30T02:42:53;100978.00;;;26.25;55.07
50434;BME280;36361;38.954;-9.002;2023-09-30T02:43:54;100974.06;;;26.26;56.86
50434;BME280;36361;38.954;-9.002;2023-09-30T02:44:55;100979.13;;;26.24;56.89
50434;BME280;36361;38.954;-9.002;2023-09-30T02:45:55;100977.34;;;26.28;54.34
50434;BME280;36361;38.954;-9.002;2023-09-30T02:46:59;100972.19;;;26.22;58.01
50434;BME280;36361;38.954;-9.002;2023-09-30T02:47:59;100978.91;;;26.21;54.29
50434;BME280;36361;38.954;-9.002;2023-09-30T02:49:03;100979.81;;;26.30;54.41
50434;BME280;36361;38.954;-9.002;2023-09-30T02:50:06;100975.06;;;26.30;54.59
50434;BME280;36361;38.954;-9.002;2023-09-30T02:51:17;100975.38;;;26.29;54.09
50434;BME280;36361;38.954;-9.002;2023-09-30T02:52:17;100970.13;;;26.27;58.26
50434;BME280;36361;38.954;-9.002;2023-09-30T02:53:18;100969.50;;;26.30;54.91
50434;BME280;36361;38.954;-9.002;2023-09-30T02:54:19;100970.13;;;26.27;53.87
50434;BME280;36361;38.954;-9.002;2023-09-30T02:55:19;100968.34;;;26.31;55.41
50434;BME280;36361;38.954;-9.002;2023-09-30T02:56:20;100973.63;;;26.33;56.55
50434;BME280;36361;38.954;-9.002;2023-09-30T02:57:24;100975.06;;;26.30;55.04
50434;BME280;36361;38.954;-9.002;2023-09-30T02:58:25;100973.03;;;26.22;53.60
50434;BME280;36361;38.954;-9.002;2023-09-30T02:59:25;100970.09;;;26.41;52.86
50434;BME280;36361;38.954;-9.002;2023-09-30T03:00:31;100968.47;;;26.40;53.04
50434;BME280;36361;38.954;-9.002;2023-09-30T03:01:33;100968.25;;;26.36;54.57
50434;BME280;36361;38.954;-9.002;2023-09-30T03:02:34;100969.50;;;26.30;53.31
50434;BME280;36361;38.954;-9.002;2023-09-30T03:03:35;100965.78;;;26.35;53.86
50434;BME280;36361;38.954;-9.002;2023-09-30T03:04:37;100970.53;;;26.34;53.15
50434;BME280;36361;38.954;-9.002;2023-09-30T03:05:41;100966.56;;;26.49;56.83
50434;BME280;36361;38.954;-9.002;2023-09-30T03:06:42;100970.94;;;26.42;52.86
50434;BME280;36361;38.954;-9.002;2023-09-30T03:07:45;100968.13;;;26.42;53.19
50434;BME280;36361;38.954;-9.002;2023-09-30T03:08:46;100975.50;;;26.38;52.84
50434;BME280;36361;38.954;-9.002;2023-09-30T03:09:47;100974.13;;;26.49;55.39
50434;BME280;36361;38.954;-9.002;2023-09-30T03:10:47;100966.25;;;26.51;52.46
50434;BME280;36361;38.954;-9.002;2023-09-30T03:11:48;100968.84;;;26.47;55.66
50434;BME280;36361;38.954;-9.002;2023-09-30T03:12:50;100966.59;;;26.35;53.44
50434;BME280;36361;38.954;-9.002;2023-09-30T03:13:52;100969.50;;;26.30;52.69
50434;BME280;36361;38.954;-9.002;2023-09-30T03:14:52;100965.06;;;26.29;52.20
50434;BME280;36361;38.954;-9.002;2023-09-30T03:15:53;100970.94;;;26.28;54.68
50434;BME280;36361;38.954;-9.002;2023-09-30T03:16:54;100962.00;;;26.17;53.08
50434;BME280;36361;38.954;-9.002;2023-09-30T03:17:54;100963.13;;;26.16;53.87
50434;BME280;36361;38.954;-9.002;2023-09-30T03:18:56;100967.84;;;26.29;53.22
50434;BME280;36361;38.954;-9.002;2023-09-30T03:19:57;100965.69;;;26.26;54.06
50434;BME280;36361;38.954;-9.002;2023-09-30T03:21:01;100969.72;;;26.20;53.11
50434;BME280;36361;38.954;-9.002;2023-09-30T03:22:08;100965.38;;;26.28;52.94
50434;BME280;36361;38.954;-9.002;2023-09-30T03:23:11;100971.78;;;26.28;53.25
50434;BME280;36361;38.954;-9.002;2023-09-30T03:24:14;100966.94;;;26.20;52.89
50434;BME280;36361;38.954;-9.002;2023-09-30T03:25:16;100971.88;;;26.23;53.33
50434;BME280;36361;38.954;-9.002;2023-09-30T03:26:17;100956.69;;;26.29;52.73
50434;BME280;36361;38.954;-9.002;2023-09-30T03:27:18;100964.34;;;26.24;53.06
50434;BME280;36361;38.954;-9.002;2023-09-30T03:28:19;100955.78;;;26.20;53.13
50434;BME280;36361;38.954;-9.002;2023-09-30T03:29:19;100955.22;;;26.32;55.94
50434;BME280;36361;38.954;-9.002;2023-09-30T03:30:20;100954.63;;;26.21;53.30
50434;BME280;36361;38.954;-9.002;2023-09-30T03:31:21;100958.75;;;26.24;52.88
50434;BME280;36361;38.954;-9.002;2023-09-30T03:32:22;100968.06;;;26.19;52.89
50434;BME280;36361;38.954;-9.002;2023-09-30T03:33:25;100961.78;;;26.14;53.58
50434;BME280;36361;38.954;-9.002;2023-09-30T03:34:26;100958.28;;;26.08;53.83
50434;BME280;36361;38.954;-9.002;2023-09-30T03:35:28;100962.41;;;25.97;53.62
50434;BME280;36361;38.954;-9.002;2023-09-30T03:36:39;100958.63;;;25.93;53.01
50434;BME280;36361;38.954;-9.002;2023-09-30T03:37:41;100960.88;;;26.04;53.35
50434;BME280;36361;38.954;-9.002;2023-09-30T03:38:42;100971.09;;;26.09;53.54
50434;BME280;36361;38.954;-9.002;2023-09-30T03:39:42;100956.94;;;26.05;53.40
50434;BME280;36361;38.954;-9.002;2023-09-30T03:40:44;100955.59;;;26.17;52.92
50434;BME280;36361;38.954;-9.002;2023-09-30T03:41:47;100955.50;;;26.08;53.46
50434;BME280;36361;38.954;-9.002;2023-09-30T03:42:51;100958.81;;;26.10;52.75
50434;BME280;36361;38.954;-9.002;2023-09-30T03:43:52;100959.63;;;26.11;52.49
50434;BME280;36361;38.954;-9.002;2023-09-30T03:44:54;100961.88;;;26.22;52.28
50434;BME280;36361;38.954;-9.002;2023-09-30T03:45:55;100956.66;;;26.07;52.71
50434;BME280;36361;38.954;-9.002;2023-09-30T03:46:57;100959.03;;;26.00;53.01
50434;BME280;36361;38.954;-9.002;2023-09-30T03:48:00;100962.50;;;26.05;52.36
50434;BME280;36361;38.954;-9.002;2023-09-30T03:49:02;100961.31;;;25.98;52.40
50434;BME280;36361;38.954;-9.002;2023-09-30T03:50:04;100957.16;;;25.95;53.64
50434;BME280;36361;38.954;-9.002;2023-09-30T03:51:23;100960.47;;;25.97;53.23
50434;BME280;36361;38.954;-9.002;2023-09-30T03:52:25;100966.47;;;25.91;53.73
50434;BME280;36361;38.954;-9.002;2023-09-30T03:53:27;100956.97;;;25.92;54.00
50434;BME280;36361;38.954;-9.002;2023-09-30T03:54:27;100962.53;;;25.92;54.03
50434;BME280;36361;38.954;-9.002;2023-09-30T03:55:28;100968.22;;;25.87;54.09
50434;BME280;36361;38.954;-9.002;2023-09-30T03:56:30;100963.19;;;25.89;54.41
50434;BME280;36361;38.954;-9.002;2023-09-30T03:57:34;100966.47;;;25.91;53.92
50434;BME280;36361;38.954;-9.002;2023-09-30T03:58:34;100960.28;;;25.80;54.99
50434;BME280;36361;38.954;-9.002;2023-09-30T03:59:36;100954.50;;;25.90;53.64
50434;BME280;36361;38.954;-9.002;2023-09-30T04:00:37;100952.22;;;25.78;54.46
50434;BME280;36361;38.954;-9.002;2023-09-30T04:01:38;100962.44;;;25.83;56.36
50434;BME280;36361;38.954;-9.002;2023-09-30T04:02:41;100960.69;;;25.73;53.90
50434;BME280;36361;38.954;-9.002;2023-09-30T04:03:43;100956.56;;;25.85;54.19
50434;BME280;36361;38.954;-9.002;2023-09-30T04:04:44;100949.13;;;25.80;55.31
50434;BME280;36361;38.954;-9.002;2023-09-30T04:05:44;100959.06;;;25.72;53.82
50434;BME280;36361;38.954;-9.002;2023-09-30T04:06:46;100959.22;;;25.62;53.85
50434;BME280;36361;38.954;-9.002;2023-09-30T04:07:47;100961.53;;;25.74;54.16
50434;BME280;36361;38.954;-9.002;2023-09-30T04:08:48;100964.13;;;25.70;54.44
50434;BME280;36361;38.954;-9.002;2023-09-30T04:09:49;100962.72;;;25.54;54.91
50434;BME280;36361;38.954;-9.002;2023-09-30T04:10:52;100959.00;;;25.45;55.16
50434;BME280;36361;38.954;-9.002;2023-09-30T04:11:57;100956.31;;;25.40;55.40
50434;BME280;36361;38.954;-9.002;2023-09-30T04:13:00;100963.13;;;25.47;55.65
50434;BME280;36361;38.954;-9.002;2023-09-30T04:14:02;100959.59;;;25.28;56.34
50434;BME280;36361;38.954;-9.002;2023-09-30T04:15:02;100964.34;;;25.28;56.16
50434;BME280;36361;38.954;-9.002;2023-09-30T04:16:07;100963.22;;;25.29;56.20
50434;BME280;36361;38.954;-9.002;2023-09-30T04:17:07;100965.81;;;25.39;55.45
50434;BME280;36361;38.954;-9.002;2023-09-30T04:18:09;100959.81;;;25.32;56.07
50434;BME280;36361;38.954;-9.002;2023-09-30T04:19:11;100963.72;;;25.17;57.35
50434;BME280;36361;38.954;-9.002;2023-09-30T04:20:14;100970.41;;;25.16;57.25
50434;BME280;36361;38.954;-9.002;2023-09-30T04:21:21;100966.97;;;25.05;57.40
50434;BME280;36361;38.954;-9.002;2023-09-30T04:22:22;100971.19;;;25.03;57.24
50434;BME280;36361;38.954;-9.002;2023-09-30T04:23:25;100965.63;;;25.03;57.83
50434;BME280;36361;38.954;-9.002;2023-09-30T04:24:26;100975.94;;;25.02;57.48
50434;BME280;36361;38.954;-9.002;2023-09-30T04:25:29;100975.19;;;24.96;57.93
50434;BME280;36361;38.954;-9.002;2023-09-30T04:26:30;100971.53;;;24.96;58.18
50434;BME280;36361;38.954;-9.002;2023-09-30T04:27:31;100976.53;;;24.99;58.30
50434;BME280;36361;38.954;-9.002;2023-09-30T04:28:31;100974.66;;;25.27;57.04
50434;BME280;36361;38.954;-9.002;2023-09-30T04:29:34;100969.91;;;25.28;57.13
50434;BME280;36361;38.954;-9.002;2023-09-30T04:30:35;100979.94;;;25.29;57.15
50434;BME280;36361;38.954;-9.002;2023-09-30T04:31:37;100979.06;;;25.14;58.04
50434;BME280;36361;38.954;-9.002;2023-09-30T04:32:39;100983.22;;;24.98;58.63
50434;BME280;36361;38.954;-9.002;2023-09-30T04:33:40;100990.22;;;24.95;58.69
50434;BME280;36361;38.954;-9.002;2023-09-30T04:34:41;100989.50;;;24.90;59.12
50434;BME280;36361;38.954;-9.002;2023-09-30T04:35:41;100991.19;;;25.05;58.98
50434;BME280;36361;38.954;-9.002;2023-09-30T04:36:42;100996.06;;;25.13;58.53
50434;BME280;36361;38.954;-9.002;2023-09-30T04:37:43;100993.00;;;24.95;58.90
50434;BME280;36361;38.954;-9.002;2023-09-30T04:38:44;100992.16;;;25.14;58.65
50434;BME280;36361;38.954;-9.002;2023-09-30T04:39:44;100998.03;;;24.93;59.02
50434;BME280;36361;38.954;-9.002;2023-09-30T04:40:45;100995.19;;;24.99;59.05
50434;BME280;36361;38.954;-9.002;2023-09-30T04:41:48;100992.47;;;24.93;59.25
50434;BME280;36361;38.954;-9.002;2023-09-30T04:42:49;100995.56;;;24.92;59.55
50434;BME280;36361;38.954;-9.002;2023-09-30T04:43:50;100995.28;;;24.75;60.48
50434;BME280;36361;38.954;-9.002;2023-09-30T04:44:52;100993.81;;;24.63;61.52
50434;BME280;36361;38.954;-9.002;2023-09-30T04:45:53;100997.31;;;24.50;61.75
50434;BME280;36361;38.954;-9.002;2023-09-30T04:46:57;100998.09;;;24.56;62.27
50434;BME280;36361;38.954;-9.002;2023-09-30T04:47:57;100991.75;;;24.50;62.26
50434;BME280;36361;38.954;-9.002;2023-09-30T04:48:58;100999.28;;;24.50;62.28
50434;BME280;36361;38.954;-9.002;2023-09-30T04:49:59;101000.81;;;24.61;61.68
50434;BME280;36361;38.954;-9.002;2023-09-30T04:50:59;100993.81;;;24.63;62.01
50434;BME280;36361;38.954;-9.002;2023-09-30T04:52:00;101001.03;;;24.64;61.99
50434;BME280;36361;38.954;-9.002;2023-09-30T04:53:01;101002.22;;;24.58;62.00
50434;BME280;36361;38.954;-9.002;2023-09-30T04:54:02;100996.13;;;24.56;61.17
50434;BME280;36361;38.954;-9.002;2023-09-30T04:55:04;100997.25;;;24.55;61.68
50434;BME280;36361;38.954;-9.002;2023-09-30T04:56:05;101000.72;;;24.47;62.04
50434;BME280;36361;38.954;-9.002;2023-09-30T04:57:05;101005.97;;;24.67;61.13
50434;BME280;36361;38.954;-9.002;2023-09-30T04:58:07;101009.72;;;24.77;60.84
50434;BME280;36361;38.954;-9.002;2023-09-30T04:59:08;101008.91;;;24.76;60.83
50434;BME280;36361;38.954;-9.002;2023-09-30T05:00:10;101010.50;;;24.82;60.59
50434;BME280;36361;38.954;-9.002;2023-09-30T05:01:11;101003.56;;;24.80;61.04
50434;BME280;36361;38.954;-9.002;2023-09-30T05:02:12;101008.25;;;24.65;60.93
50434;BME280;36361;38.954;-9.002;2023-09-30T05:03:15;101007.88;;;24.53;62.03
50434;BME280;36361;38.954;-9.002;2023-09-30T05:04:16;101005.25;;;24.43;62.36
50434;BME280;36361;38.954;-9.002;2023-09-30T05:05:17;101014.00;;;24.31;62.72
50434;BME280;36361;38.954;-9.002;2023-09-30T05:06:19;101014.72;;;24.61;61.73
50434;BME280;36361;38.954;-9.002;2023-09-30T05:07:21;101008.56;;;24.45;62.35
50434;BME280;36361;38.954;-9.002;2023-09-30T05:08:23;101009.94;;;24.24;63.62
50434;BME280;36361;38.954;-9.002;2023-09-30T05:09:24;101011.94;;;24.18;63.95
50434;BME280;36361;38.954;-9.002;2023-09-30T05:10:26;101021.56;;;24.07;63.74
50434;BME280;36361;38.954;-9.002;2023-09-30T05:11:27;101012.31;;;24.11;64.07
50434;BME280;36361;38.954;-9.002;2023-09-30T05:12:28;101013.91;;;24.18;63.94
50434;BME280;36361;38.954;-9.002;2023-09-30T05:13:29;101017.53;;;23.94;65.02
50434;BME280;36361;38.954;-9.002;2023-09-30T05:14:29;101019.78;;;23.92;65.21
50434;BME280;36361;38.954;-9.002;2023-09-30T05:15:30;101017.28;;;23.67;66.75
50434;BME280;36361;38.954;-9.002;2023-09-30T05:16:33;101014.06;;;23.60;67.79
50434;BME280;36361;38.954;-9.002;2023-09-30T05:17:33;101019.78;;;23.68;67.52
50434;BME280;36361;38.954;-9.002;2023-09-30T05:18:34;101017.72;;;23.79;66.96
50434;BME280;36361;38.954;-9.002;2023-09-30T05:19:35;101017.25;;;23.72;67.65
50434;BME280;36361;38.954;-9.002;2023-09-30T05:20:37;101014.28;;;23.87;66.28